Time;durP1;ratioP1;P1;durP2;ratioP2;P2;SDS_P1;SDS_P2;PMS_P1;PMS_P2;Temp;Humidity;BMP_temperature;BMP_pressure;BME280_temperature;BME280_humidity;BME280_pressure;Samples;Min_cycle;Max_cycle;Signal;HPM_P1;HPM_P2
2022/04/09 00:00:26;;;;;;;;;;;19.10;99.90;;;;;;5058003;28;19932;-59
2022/04/09 00:02:53;;;;;;;;;;;19.10;99.90;;;;;;5056683;28;20301;-60
2022/04/09 00:05:21;;;;;;;;;;;19.10;99.90;;;;;;5058613;28;20271;-60
2022/04/09 00:07:48;;;;;;;;;;;19.10;99.90;;;;;;5051397;28;19924;-61
2022/04/09 00:10:15;;;;;;;;;;;19.10;99.90;;;;;;5062371;28;19939;-61
2022/04/09 00:12:47;;;;;;;;;;;19.00;99.90;;;;;;5063726;28;19951;-61
2022/04/09 00:15:14;;;;;;;;;;;19.00;99.90;;;;;;5057049;28;19998;-60
2022/04/09 00:17:42;;;;;;;;;;;19.00;99.90;;;;;;5060930;28;20306;-62
2022/04/09 00:20:11;;;;;;;;;;;19.00;99.90;;;;;;5054176;28;20558;-60
2022/04/09 00:22:38;;;;;;;;;;;19.00;99.90;;;;;;5065715;28;20297;-62
2022/04/09 00:25:06;;;;;;;;;;;19.00;99.90;;;;;;5032903;28;20313;-61
2022/04/09 00:27:33;;;;;;;;;;;19.00;99.90;;;;;;5051658;28;20392;-61
2022/04/09 00:30:01;;;;;;;;;;;19.00;99.90;;;;;;5045795;28;19928;-61
2022/04/09 00:32:29;;;;;;;;;;;19.00;99.90;;;;;;5066494;28;19931;-64
2022/04/09 00:34:56;;;;;;;;;;;19.00;99.90;;;;;;5050456;28;19924;-62
2022/04/09 00:37:23;;;;;;;;;;;19.00;99.90;;;;;;5047754;28;19924;-60
2022/04/09 00:39:51;;;;;;;;;;;19.00;99.90;;;;;;5037749;28;20432;-60
2022/04/09 00:42:19;;;;;;;;;;;19.00;99.90;;;;;;5046820;28;20413;-62
2022/04/09 00:44:47;;;;;;;;;;;19.00;99.90;;;;;;5038541;28;19924;-62
2022/04/09 00:47:14;;;;;;;;;;;19.00;99.90;;;;;;5059819;28;20255;-59
2022/04/09 00:49:41;;;;;;;;;;;19.00;99.90;;;;;;5045443;28;20336;-58
2022/04/09 00:52:12;;;;;;;;;;;18.90;99.90;;;;;;5041993;28;19935;-60
2022/04/09 00:54:42;;;;;;;;;;;18.90;99.90;;;;;;5055994;28;19936;-61
2022/04/09 00:57:10;;;;;;;;;;;18.90;99.90;;;;;;5064172;28;19928;-61
2022/04/09 00:59:41;;;;;;;;;;;18.90;99.90;;;;;;5060308;28;19928;-59
2022/04/09 01:02:11;;;;;;;;;;;18.90;99.90;;;;;;5034836;28;20305;-60
2022/04/09 01:04:44;;;;;;;;;;;18.90;99.90;;;;;;5062332;28;19924;-59
2022/04/09 01:07:13;;;;;;;;;;;18.90;99.90;;;;;;5058421;28;19924;-60
2022/04/09 01:09:43;;;;;;;;;;;18.90;99.90;;;;;;5041928;28;19932;-59
2022/04/09 01:12:10;;;;;;;;;;;18.90;99.90;;;;;;5060555;28;19939;-59
2022/04/09 01:14:37;;;;;;;;;;;18.90;99.90;;;;;;5063383;28;19924;-60
2022/04/09 01:17:05;;;;;;;;;;;18.90;99.90;;;;;;5043622;28;19932;-59
2022/04/09 01:19:32;;;;;;;;;;;18.90;99.90;;;;;;5045423;28;19931;-59
2022/04/09 01:22:00;;;;;;;;;;;18.80;99.90;;;;;;5032828;28;19921;-62
2022/04/09 01:24:29;;;;;;;;;;;18.90;99.90;;;;;;5036092;28;19925;-62
2022/04/09 01:26:58;;;;;;;;;;;18.80;99.90;;;;;;5039184;28;19931;-61
2022/04/09 01:29:32;;;;;;;;;;;18.80;99.90;;;;;;5048946;28;20393;-57
2022/04/09 01:31:59;;;;;;;;;;;18.80;99.90;;;;;;5040851;28;19932;-61
2022/04/09 01:34:26;;;;;;;;;;;18.90;99.90;;;;;;5040971;28;19924;-60
2022/04/09 01:36:54;;;;;;;;;;;18.80;99.90;;;;;;5031583;28;19924;-61
2022/04/09 01:39:22;;;;;;;;;;;18.90;99.90;;;;;;5043917;28;19935;-59
2022/04/09 01:41:49;;;;;;;;;;;18.80;99.90;;;;;;5055172;28;19924;-59
2022/04/09 01:44:17;;;;;;;;;;;18.80;99.90;;;;;;5065213;28;19925;-58
2022/04/09 01:46:44;;;;;;;;;;;18.80;99.90;;;;;;5043409;28;19925;-61
2022/04/09 01:49:13;;;;;;;;;;;18.80;99.90;;;;;;5039305;28;19924;-59
2022/04/09 01:51:41;;;;;;;;;;;18.80;99.90;;;;;;5047032;28;19936;-61
2022/04/09 01:54:10;;;;;;;;;;;18.80;99.90;;;;;;5044404;28;19921;-58
2022/04/09 01:56:38;;;;;;;;;;;18.80;99.90;;;;;;5063143;28;19924;-58
2022/04/09 01:59:06;;;;;;;;;;;18.80;99.90;;;;;;5040957;28;20381;-60
2022/04/09 02:01:33;;;;;;;;;;;18.70;99.90;;;;;;5062184;28;19920;-62
2022/04/09 02:04:01;;;;;;;;;;;18.70;99.90;;;;;;5052570;28;19928;-61
2022/04/09 02:06:28;;;;;;;;;;;18.70;99.90;;;;;;5060722;28;19925;-60
2022/04/09 02:08:55;;;;;;;;;;;18.70;99.90;;;;;;5061780;28;19924;-62
2022/04/09 02:11:23;;;;;;;;;;;18.70;99.90;;;;;;5058793;28;19925;-59
2022/04/09 02:13:51;;;;;;;;;;;18.70;99.90;;;;;;5052809;28;19954;-58
2022/04/09 02:16:18;;;;;;;;;;;18.70;99.90;;;;;;5040367;28;20301;-59
2022/04/09 02:18:46;;;;;;;;;;;18.70;99.90;;;;;;5046081;28;19924;-61
2022/04/09 02:21:13;;;;;;;;;;;18.70;99.90;;;;;;5048800;28;20331;-59
2022/04/09 02:23:41;;;;;;;;;;;18.60;99.90;;;;;;5060511;28;19931;-60
2022/04/09 02:26:08;;;;;;;;;;;18.70;99.90;;;;;;5062831;28;20385;-61
2022/04/09 02:28:35;;;;;;;;;;;18.70;99.90;;;;;;5040917;28;20626;-61
2022/04/09 02:31:03;;;;;;;;;;;18.70;99.90;;;;;;5041535;28;19932;-63
2022/04/09 02:33:38;;;;;;;;;;;18.60;99.90;;;;;;5042164;28;19932;-63
2022/04/09 02:36:09;;;;;;;;;;;18.60;99.90;;;;;;5029303;28;20286;-61
2022/04/09 02:38:37;;;;;;;;;;;18.60;99.90;;;;;;5043601;28;19925;-59
2022/04/09 02:41:04;;;;;;;;;;;18.60;99.90;;;;;;5044354;28;19925;-62
2022/04/09 02:43:31;;;;;;;;;;;18.60;99.90;;;;;;5041133;28;20305;-58
2022/04/09 02:45:59;;;;;;;;;;;18.60;99.90;;;;;;5040522;28;19924;-61
2022/04/09 02:48:27;;;;;;;;;;;18.60;99.90;;;;;;5045405;28;19931;-59
2022/04/09 02:50:54;;;;;;;;;;;18.60;99.90;;;;;;5060193;28;19947;-60
2022/04/09 02:53:23;;;;;;;;;;;18.60;99.90;;;;;;5033281;28;19924;-62
2022/04/09 02:55:52;;;;;;;;;;;18.60;99.90;;;;;;5041361;28;19936;-58
2022/04/09 02:58:19;;;;;;;;;;;18.60;99.90;;;;;;5058375;28;19931;-61
2022/04/09 03:00:48;;;;;;;;;;;18.60;99.90;;;;;;5062151;28;20293;-59
2022/04/09 03:03:19;;;;;;;;;;;18.60;99.90;;;;;;5044546;28;19939;-59
2022/04/09 03:05:48;;;;;;;;;;;18.60;99.90;;;;;;5060556;28;20411;-59
2022/04/09 03:08:15;;;;;;;;;;;18.60;99.90;;;;;;5061830;28;19920;-62
2022/04/09 03:10:42;;;;;;;;;;;18.60;99.90;;;;;;5052298;28;19939;-58
2022/04/09 03:13:09;;;;;;;;;;;18.50;99.90;;;;;;5062612;28;20050;-62
2022/04/09 03:15:37;;;;;;;;;;;18.50;99.90;;;;;;5056759;28;19963;-58
2022/04/09 03:18:04;;;;;;;;;;;18.50;99.90;;;;;;5044500;28;20329;-57
2022/04/09 03:20:34;;;;;;;;;;;18.50;99.90;;;;;;5042419;28;19925;-60
2022/04/09 03:23:01;;;;;;;;;;;18.50;99.90;;;;;;5040976;28;20002;-61
2022/04/09 03:25:33;;;;;;;;;;;18.50;99.90;;;;;;5046057;28;20141;-58
2022/04/09 03:28:01;;;;;;;;;;;18.50;99.90;;;;;;5042700;28;19920;-61
2022/04/09 03:30:30;;;;;;;;;;;18.50;99.90;;;;;;5045983;28;19935;-61
2022/04/09 03:32:58;;;;;;;;;;;18.50;99.90;;;;;;5048827;28;20392;-59
2022/04/09 03:35:30;;;;;;;;;;;18.50;99.90;;;;;;5043630;28;20405;-60
2022/04/09 03:37:58;;;;;;;;;;;18.50;99.90;;;;;;5060328;28;19921;-62
2022/04/09 03:40:36;;;;;;;;;;;18.50;99.90;;;;;;5049680;28;19924;-56
2022/04/09 03:43:04;;;;;;;;;;;18.50;99.90;;;;;;5045453;28;19928;-59
2022/04/09 03:45:31;;;;;;;;;;;18.50;99.90;;;;;;5030119;28;20427;-59
2022/04/09 03:48:01;;;;;;;;;;;18.50;99.90;;;;;;5042011;28;20389;-62
2022/04/09 03:50:31;;;;;;;;;;;18.50;99.90;;;;;;5047334;28;19920;-62
2022/04/09 03:53:00;;;;;;;;;;;18.50;99.90;;;;;;5042216;28;19925;-59
2022/04/09 03:55:29;;;;;;;;;;;18.60;99.90;;;;;;5030843;28;19925;-62
2022/04/09 03:57:59;;;;;;;;;;;18.80;99.90;;;;;;5038027;28;19925;-58
2022/04/09 04:00:26;;;;;;;;;;;19.00;99.90;;;;;;5058361;28;20419;-61
2022/04/09 04:02:57;;;;;;;;;;;19.10;99.90;;;;;;5033687;28;19924;-61
2022/04/09 04:05:26;;;;;;;;;;;19.30;99.90;;;;;;5039479;28;20405;-62
2022/04/09 04:07:54;;;;;;;;;;;19.40;99.90;;;;;;5047533;28;19932;-62
2022/04/09 04:10:23;;;;;;;;;;;19.50;99.90;;;;;;5046216;28;19928;-62
2022/04/09 04:12:58;;;;;;;;;;;19.60;99.90;;;;;;5036696;28;19931;-59
2022/04/09 04:15:31;;;;;;;;;;;19.70;99.90;;;;;;5044422;28;19977;-58
2022/04/09 04:17:59;;;;;;;;;;;19.90;99.90;;;;;;5044081;28;20434;-58
2022/04/09 04:20:32;;;;;;;;;;;20.00;99.90;;;;;;5045287;28;19921;-60
2022/04/09 04:23:00;;;;;;;;;;;20.20;99.90;;;;;;5035539;28;19924;-57
2022/04/09 04:25:27;;;;;;;;;;;20.30;99.90;;;;;;5054240;28;20336;-59
2022/04/09 04:27:55;;;;;;;;;;;20.40;99.90;;;;;;5041549;28;19935;-59
2022/04/09 04:30:24;;;;;;;;;;;20.50;99.90;;;;;;5047837;28;19924;-61
2022/04/09 04:32:53;;;;;;;;;;;20.70;99.90;;;;;;5040427;28;19928;-60
2022/04/09 04:35:30;;;;;;;;;;;20.80;99.90;;;;;;5050587;28;20384;-62
2022/04/09 04:37:57;;;;;;;;;;;21.00;99.90;;;;;;5038073;28;19948;-62
2022/04/09 04:40:28;;;;;;;;;;;21.20;99.90;;;;;;5041516;28;19944;-60
2022/04/09 04:43:00;;;;;;;;;;;21.40;99.90;;;;;;5044387;28;19924;-63
2022/04/09 04:45:29;;;;;;;;;;;21.50;99.90;;;;;;5046917;28;19931;-61
2022/04/09 04:47:58;;;;;;;;;;;21.60;99.90;;;;;;5034729;28;19925;-61
2022/04/09 04:50:29;;;;;;;;;;;21.70;99.90;;;;;;5045072;28;19924;-60
2022/04/09 04:52:58;;;;;;;;;;;21.70;99.90;;;;;;5046723;28;19927;-59
2022/04/09 04:55:29;;;;;;;;;;;21.80;99.90;;;;;;5043223;28;19925;-61
2022/04/09 04:57:56;;;;;;;;;;;21.80;99.90;;;;;;5059726;28;20301;-61
2022/04/09 05:00:31;;;;;;;;;;;21.80;99.90;;;;;;5040131;28;20309;-61
2022/04/09 05:03:03;;;;;;;;;;;21.80;99.90;;;;;;5033224;28;20305;-62
2022/04/09 05:05:33;;;;;;;;;;;21.80;99.90;;;;;;5048718;28;19927;-61
2022/04/09 05:08:01;;;;;;;;;;;21.70;99.90;;;;;;5041317;28;19924;-58
2022/04/09 05:10:28;;;;;;;;;;;21.60;99.90;;;;;;5065563;28;19928;-62
2022/04/09 05:12:59;;;;;;;;;;;21.50;99.90;;;;;;5061821;28;19932;-60
2022/04/09 05:15:29;;;;;;;;;;;21.40;99.90;;;;;;5041979;28;19925;-61
2022/04/09 05:17:57;;;;;;;;;;;21.40;99.90;;;;;;5049506;28;19924;-62
2022/04/09 05:20:25;;;;;;;;;;;21.30;99.90;;;;;;5044012;28;19924;-60
2022/04/09 05:22:56;;;;;;;;;;;19.80;95.10;;;;;;5060841;28;20056;-59
2022/04/09 05:25:23;;;;;;;;;;;18.50;94.20;;;;;;5037753;28;20392;-61
2022/04/09 05:27:55;;;;;;;;;;;18.50;99.40;;;;;;5047537;28;19920;-64
2022/04/09 05:30:32;;;;;;;;;;;19.20;98.80;;;;;;5045200;28;19926;-60
2022/04/09 05:33:00;;;;;;;;;;;19.90;98.70;;;;;;5047152;28;20412;-63
2022/04/09 05:35:29;;;;;;;;;;;20.30;99.00;;;;;;5048482;28;20428;-61
2022/04/09 05:37:57;;;;;;;;;;;20.50;99.30;;;;;;5048136;28;19924;-62
2022/04/09 05:40:30;;;;;;;;;;;20.70;99.90;;;;;;5036780;28;19936;-62
2022/04/09 05:43:01;;;;;;;;;;;20.80;99.90;;;;;;5044146;28;19929;-61
2022/04/09 05:45:28;;;;;;;;;;;20.90;99.90;;;;;;5064188;28;19931;-63
2022/04/09 05:47:56;;;;;;;;;;;21.10;99.90;;;;;;5053248;28;19924;-61
2022/04/09 05:50:33;;;;;;;;;;;21.10;99.90;;;;;;5045115;28;20456;-63
2022/04/09 05:53:01;;;;;;;;;;;21.20;99.90;;;;;;5036036;28;19924;-62
2022/04/09 05:55:28;;;;;;;;;;;21.20;99.90;;;;;;5048261;28;19928;-61
2022/04/09 05:57:55;;;;;;;;;;;21.20;99.90;;;;;;5060181;28;19924;-57
2022/04/09 06:00:24;;;;;;;;;;;21.30;99.90;;;;;;5023044;28;19944;-62
2022/04/09 06:03:03;;;;;;;;;;;21.20;99.90;;;;;;5042829;28;19925;-60
2022/04/09 06:05:35;;;;;;;;;;;21.30;99.90;;;;;;5042112;28;19932;-63
2022/04/09 06:08:09;;;;;;;;;;;21.30;99.90;;;;;;5048378;28;19932;-60
2022/04/09 06:10:37;;;;;;;;;;;21.30;99.90;;;;;;5039560;28;19932;-59
2022/04/09 06:13:05;;;;;;;;;;;21.30;99.90;;;;;;5026025;28;20286;-59
2022/04/09 06:15:32;;;;;;;;;;;21.30;99.90;;;;;;5024715;28;19924;-62
2022/04/09 06:18:06;;;;;;;;;;;21.30;99.90;;;;;;5048819;28;19932;-62
2022/04/09 06:20:34;;;;;;;;;;;21.20;99.90;;;;;;5044703;28;20744;-60
2022/04/09 06:23:04;;;;;;;;;;;21.20;99.90;;;;;;5051082;28;19924;-60
2022/04/09 06:25:33;;;;;;;;;;;21.20;99.90;;;;;;5039164;28;20309;-63
2022/04/09 06:28:01;;;;;;;;;;;21.20;99.90;;;;;;5047433;28;19931;-62
2022/04/09 06:30:32;;;;;;;;;;;21.20;99.90;;;;;;5050053;28;19947;-62
2022/04/09 06:33:07;;;;;;;;;;;21.10;99.90;;;;;;5065868;28;19922;-65
2022/04/09 06:35:35;;;;;;;;;;;21.00;99.90;;;;;;5040642;28;19931;-63
2022/04/09 06:38:06;;;;;;;;;;;21.00;99.90;;;;;;5044423;28;19928;-62
2022/04/09 06:40:34;;;;;;;;;;;21.00;99.90;;;;;;5044567;28;19924;-62
2022/04/09 06:43:01;;;;;;;;;;;20.90;99.90;;;;;;5047068;28;19935;-63
2022/04/09 06:45:48;;;;;;;;;;;20.90;99.90;;;;;;5064805;28;19932;-63
2022/04/09 06:48:34;;;;;;;;;;;21.00;99.90;;;;;;5065889;28;20545;-63
2022/04/09 06:51:30;;;;;;;;;;;20.90;99.90;;;;;;4987572;28;19949;-59
2022/04/09 06:54:13;;;;;;;;;;;20.90;99.90;;;;;;5046317;28;19931;-65
2022/04/09 06:56:40;;;;;;;;;;;20.90;99.90;;;;;;5042750;28;19921;-68
2022/04/09 06:59:08;;;;;;;;;;;20.90;99.90;;;;;;5048870;28;19931;-66
2022/04/09 07:01:37;;;;;;;;;;;20.90;99.90;;;;;;5041778;28;19931;-65
2022/04/09 07:04:05;;;;;;;;;;;21.00;99.90;;;;;;5057012;28;19931;-64
2022/04/09 07:06:32;;;;;;;;;;;21.00;99.90;;;;;;5065084;28;19939;-66
2022/04/09 07:09:00;;;;;;;;;;;21.00;99.90;;;;;;5064086;28;19932;-65
2022/04/09 07:11:27;;;;;;;;;;;21.10;99.90;;;;;;5059961;28;19937;-65
2022/04/09 07:13:54;;;;;;;;;;;21.20;99.90;;;;;;5061793;28;19929;-66
2022/04/09 07:16:21;;;;;;;;;;;21.40;99.90;;;;;;5057175;28;20377;-67
2022/04/09 07:18:48;;;;;;;;;;;21.50;99.90;;;;;;5056159;28;19925;-65
2022/04/09 07:21:16;;;;;;;;;;;21.60;99.90;;;;;;5048263;28;19921;-64
2022/04/09 07:23:43;;;;;;;;;;;21.70;99.90;;;;;;5056920;28;19928;-66
2022/04/09 07:26:10;;;;;;;;;;;21.80;99.90;;;;;;5065004;28;19928;-61
2022/04/09 07:28:37;;;;;;;;;;;21.80;99.90;;;;;;5067125;28;20377;-66
2022/04/09 07:31:04;;;;;;;;;;;21.90;99.90;;;;;;5061414;28;20407;-68
2022/04/09 07:33:31;;;;;;;;;;;21.90;99.90;;;;;;5049541;28;20352;-64
2022/04/09 07:35:59;;;;;;;;;;;22.00;99.90;;;;;;5059928;28;19931;-64
2022/04/09 07:38:26;;;;;;;;;;;22.00;99.90;;;;;;5055607;28;19932;-65
2022/04/09 07:40:54;;;;;;;;;;;21.90;99.90;;;;;;5067300;28;19928;-66
2022/04/09 07:43:21;;;;;;;;;;;21.90;99.90;;;;;;5062695;28;19924;-66
2022/04/09 07:45:48;;;;;;;;;;;21.90;99.90;;;;;;5041405;28;19924;-65
2022/04/09 07:48:16;;;;;;;;;;;21.70;99.90;;;;;;5062614;28;19934;-67
2022/04/09 07:50:43;;;;;;;;;;;21.60;99.80;;;;;;5066615;28;19931;-66
2022/04/09 07:53:11;;;;;;;;;;;21.60;99.30;;;;;;5061726;28;19925;-67
2022/04/09 07:55:38;;;;;;;;;;;21.60;99.90;;;;;;5058129;28;20231;-66
2022/04/09 07:58:06;;;;;;;;;;;21.60;99.90;;;;;;5060786;28;19931;-64
2022/04/09 08:00:33;;;;;;;;;;;21.50;99.90;;;;;;5062137;28;19924;-66
2022/04/09 08:03:01;;;;;;;;;;;21.50;99.90;;;;;;5061960;28;19925;-66
2022/04/09 08:05:28;;;;;;;;;;;21.50;99.90;;;;;;5056846;28;19931;-66
2022/04/09 08:07:57;;;;;;;;;;;21.40;99.90;;;;;;5053288;28;19924;-67
2022/04/09 08:10:24;;;;;;;;;;;21.40;99.90;;;;;;5058829;28;19958;-64
2022/04/09 08:12:53;;;;;;;;;;;21.40;99.90;;;;;;5060139;28;19939;-65
2022/04/09 08:15:21;;;;;;;;;;;21.40;99.90;;;;;;5045445;28;20007;-66
2022/04/09 08:17:48;;;;;;;;;;;21.40;99.90;;;;;;5064395;28;19920;-64
2022/04/09 08:20:18;;;;;;;;;;;21.40;99.90;;;;;;5064706;28;19927;-64
2022/04/09 08:22:50;;;;;;;;;;;21.40;99.90;;;;;;5054074;28;19931;-66
2022/04/09 08:25:17;;;;;;;;;;;21.40;99.90;;;;;;5055699;28;19943;-70
2022/04/09 08:27:52;;;;;;;;;;;21.40;99.90;;;;;;5056018;28;19947;-64
2022/04/09 08:30:19;;;;;;;;;;;21.40;99.90;;;;;;5051950;28;19924;-66
2022/04/09 08:32:47;;;;;;;;;;;21.30;99.90;;;;;;5058914;28;20334;-64
2022/04/09 08:35:14;;;;;;;;;;;21.30;99.90;;;;;;5057048;28;19924;-65
2022/04/09 08:37:41;;;;;;;;;;;21.30;99.90;;;;;;5056678;28;19920;-66
2022/04/09 08:40:14;;;;;;;;;;;21.30;99.90;;;;;;5062724;28;19932;-66
2022/04/09 08:42:42;;;;;;;;;;;21.20;99.90;;;;;;5046592;28;19924;-66
2022/04/09 08:45:09;;;;;;;;;;;21.20;99.90;;;;;;5062931;28;19921;-66
2022/04/09 08:47:37;;;;;;;;;;;21.10;99.90;;;;;;5049214;28;19920;-65
2022/04/09 08:50:05;;;;;;;;;;;21.10;99.90;;;;;;5059992;28;19924;-65
2022/04/09 08:52:33;;;;;;;;;;;21.10;99.90;;;;;;5055954;28;19924;-64
2022/04/09 08:55:00;;;;;;;;;;;21.10;99.90;;;;;;5059797;28;20305;-64
2022/04/09 08:57:28;;;;;;;;;;;21.20;99.90;;;;;;5056774;28;20373;-66
2022/04/09 08:59:55;;;;;;;;;;;21.30;99.90;;;;;;5061145;28;20511;-66
2022/04/09 09:02:24;;;;;;;;;;;21.40;99.90;;;;;;5056573;28;19931;-67
2022/04/09 09:04:51;;;;;;;;;;;21.50;99.90;;;;;;5062999;28;19921;-64
2022/04/09 09:07:22;;;;;;;;;;;21.60;99.90;;;;;;5058845;28;19975;-64
2022/04/09 09:09:51;;;;;;;;;;;21.70;99.90;;;;;;5063775;28;19932;-66
2022/04/09 09:12:28;;;;;;;;;;;21.80;99.90;;;;;;5059194;28;19943;-67
2022/04/09 09:14:57;;;;;;;;;;;21.90;99.90;;;;;;5061747;28;19928;-63
2022/04/09 09:17:28;;;;;;;;;;;22.00;99.90;;;;;;5064309;28;19935;-65
2022/04/09 09:19:55;;;;;;;;;;;22.00;99.90;;;;;;5059632;28;20146;-65
2022/04/09 09:22:34;;;;;;;;;;;22.10;99.90;;;;;;5055957;28;20396;-64
2022/04/09 09:25:06;;;;;;;;;;;22.00;99.90;;;;;;5061919;28;20340;-64
2022/04/09 09:27:34;;;;;;;;;;;21.70;99.90;;;;;;5060491;28;19951;-69
2022/04/09 09:30:02;;;;;;;;;;;21.60;98.30;;;;;;5059914;28;19925;-64
2022/04/09 09:32:30;;;;;;;;;;;21.50;96.20;;;;;;5047646;28;19924;-66
2022/04/09 09:34:59;;;;;;;;;;;21.40;95.10;;;;;;5058963;28;19935;-65
2022/04/09 09:37:28;;;;;;;;;;;21.30;94.30;;;;;;5040285;28;19951;-67
2022/04/09 09:39:58;;;;;;;;;;;21.20;93.20;;;;;;5057364;28;19924;-65
2022/04/09 09:42:26;;;;;;;;;;;21.10;92.70;;;;;;5058835;28;20000;-63
2022/04/09 09:44:53;;;;;;;;;;;21.10;92.50;;;;;;5062509;28;19959;-64
2022/04/09 09:47:23;;;;;;;;;;;21.10;93.20;;;;;;5061321;28;20543;-64
2022/04/09 09:49:55;;;;;;;;;;;21.20;93.50;;;;;;5045667;28;19928;-68
2022/04/09 09:52:23;;;;;;;;;;;21.20;94.20;;;;;;5060368;28;19985;-67
2022/04/09 09:54:53;;;;;;;;;;;21.20;95.00;;;;;;5057111;28;20144;-62
2022/04/09 09:57:21;;;;;;;;;;;21.30;96.30;;;;;;5054636;28;19928;-63
2022/04/09 09:59:49;;;;;;;;;;;21.30;97.70;;;;;;5055501;28;20373;-66
2022/04/09 10:02:19;;;;;;;;;;;21.30;98.30;;;;;;5041299;28;19920;-66
2022/04/09 10:04:47;;;;;;;;;;;21.30;98.70;;;;;;5060687;28;19928;-63
2022/04/09 10:07:15;;;;;;;;;;;21.30;99.10;;;;;;5058152;28;20424;-62
2022/04/09 10:09:42;;;;;;;;;;;21.30;99.50;;;;;;5062899;28;20419;-62
2022/04/09 10:12:20;;;;;;;;;;;21.40;99.90;;;;;;5054955;28;19960;-57
2022/04/09 10:14:57;;;;;;;;;;;21.40;99.90;;;;;;5061025;28;19947;-65
2022/04/09 10:17:26;;;;;;;;;;;21.40;99.90;;;;;;5062851;28;20790;-64
2022/04/09 10:19:56;;;;;;;;;;;21.50;99.90;;;;;;5057321;28;19951;-61
2022/04/09 10:22:25;;;;;;;;;;;21.60;99.90;;;;;;5043770;28;19939;-61
2022/04/09 10:24:54;;;;;;;;;;;21.60;99.90;;;;;;5049423;28;20012;-65
2022/04/09 10:27:38;;;;;;;;;;;21.60;99.90;;;;;;5062604;28;19928;-64
2022/04/09 10:30:13;;;;;;;;;;;21.70;99.90;;;;;;5039870;28;19925;-70
2022/04/09 10:32:52;;;;;;;;;;;21.80;99.90;;;;;;5040799;28;19995;-63
2022/04/09 10:35:24;;;;;;;;;;;22.00;99.90;;;;;;5065824;28;19924;-64
2022/04/09 10:38:16;;;;;;;;;;;22.00;99.90;;;;;;5061713;28;19924;-72
2022/04/09 10:40:43;;;;;;;;;;;22.00;99.90;;;;;;5044234;28;19928;-64
2022/04/09 10:43:22;;;;;;;;;;;22.10;99.90;;;;;;5059512;28;19924;-65
2022/04/09 10:46:02;;;;;;;;;;;22.10;99.90;;;;;;5039496;28;19924;-63
2022/04/09 10:48:30;;;;;;;;;;;22.10;99.90;;;;;;5067455;28;20027;-66
2022/04/09 10:50:59;;;;;;;;;;;22.00;99.90;;;;;;5065323;28;19928;-67
2022/04/09 10:53:26;;;;;;;;;;;21.90;99.90;;;;;;5065922;28;20308;-65
2022/04/09 10:56:09;;;;;;;;;;;21.90;99.90;;;;;;5061699;28;19931;-66
2022/04/09 10:58:55;;;;;;;;;;;21.90;99.90;;;;;;5046336;28;19955;-67
2022/04/09 11:01:41;;;;;;;;;;;21.90;99.90;;;;;;5061001;28;20259;-67
2022/04/09 11:04:31;;;;;;;;;;;21.80;99.90;;;;;;5067631;28;19928;-66
2022/04/09 11:07:01;;;;;;;;;;;21.80;99.90;;;;;;5057038;28;19924;-64
2022/04/09 11:09:51;;;;;;;;;;;21.80;99.90;;;;;;5064305;28;19924;-66
2022/04/09 11:12:20;;;;;;;;;;;21.70;99.90;;;;;;5059444;28;19935;-66
2022/04/09 11:14:49;;;;;;;;;;;21.60;99.90;;;;;;5046332;28;19935;-66
2022/04/09 11:17:16;;;;;;;;;;;21.60;99.90;;;;;;5061738;28;19927;-67
2022/04/09 11:19:43;;;;;;;;;;;21.60;99.90;;;;;;5064987;28;20394;-67
2022/04/09 11:22:16;;;;;;;;;;;21.50;99.90;;;;;;5061668;28;19927;-64
2022/04/09 11:24:44;;;;;;;;;;;21.50;99.90;;;;;;5065942;28;19931;-63
2022/04/09 11:27:11;;;;;;;;;;;21.50;99.90;;;;;;5051056;28;19932;-65
2022/04/09 11:29:40;;;;;;;;;;;21.50;99.90;;;;;;5060082;28;19935;-65
2022/04/09 11:32:17;;;;;;;;;;;21.50;99.90;;;;;;5067081;28;20552;-65
2022/04/09 11:34:51;;;;;;;;;;;21.40;99.90;;;;;;5059529;28;20169;-65
2022/04/09 11:37:19;;;;;;;;;;;21.40;99.90;;;;;;5071351;28;19955;-64
2022/04/09 11:39:47;;;;;;;;;;;21.30;99.90;;;;;;5069491;28;19941;-66
2022/04/09 11:42:15;;;;;;;;;;;21.30;99.90;;;;;;5063617;28;20317;-65
2022/04/09 11:44:49;;;;;;;;;;;21.30;99.90;;;;;;5066153;28;19929;-67
2022/04/09 11:47:18;;;;;;;;;;;21.30;99.90;;;;;;5060358;28;20385;-65
2022/04/09 11:49:47;;;;;;;;;;;21.30;99.90;;;;;;5047277;28;19928;-60
2022/04/09 11:52:24;;;;;;;;;;;21.30;99.90;;;;;;5062901;28;19924;-64
2022/04/09 11:54:52;;;;;;;;;;;21.30;99.90;;;;;;5064874;28;19928;-64
2022/04/09 11:57:19;;;;;;;;;;;21.30;99.90;;;;;;5054232;28;20261;-65
2022/04/09 11:59:53;;;;;;;;;;;21.30;99.90;;;;;;5062256;28;20398;-64
2022/04/09 12:02:26;;;;;;;;;;;21.20;99.90;;;;;;5059066;28;19924;-65
2022/04/09 12:04:54;;;;;;;;;;;21.20;99.90;;;;;;5061502;28;19924;-63
2022/04/09 12:07:22;;;;;;;;;;;21.30;99.90;;;;;;5056956;28;19939;-67
2022/04/09 12:09:49;;;;;;;;;;;21.40;99.90;;;;;;5057651;28;20393;-66
2022/04/09 12:12:18;;;;;;;;;;;21.50;99.90;;;;;;5042086;28;20031;-65
2022/04/09 12:14:53;;;;;;;;;;;21.60;99.90;;;;;;5061935;28;19925;-66
2022/04/09 12:17:23;;;;;;;;;;;21.70;99.90;;;;;;5059828;28;20390;-65
2022/04/09 12:19:50;;;;;;;;;;;21.80;99.90;;;;;;5060410;28;19939;-64
2022/04/09 12:22:20;;;;;;;;;;;21.80;99.90;;;;;;5057167;28;20386;-65
2022/04/09 12:24:48;;;;;;;;;;;21.90;99.90;;;;;;5056330;28;19931;-66
2022/04/09 12:27:22;;;;;;;;;;;22.00;99.90;;;;;;5062912;28;20389;-65
2022/04/09 12:29:53;;;;;;;;;;;22.00;99.90;;;;;;5040676;28;19936;-61
2022/04/09 12:32:23;;;;;;;;;;;22.00;99.90;;;;;;5052985;28;19935;-64
2022/04/09 12:34:52;;;;;;;;;;;22.00;99.90;;;;;;5066615;28;19947;-65
2022/04/09 12:37:20;;;;;;;;;;;22.10;99.90;;;;;;5067553;28;19935;-63
2022/04/09 12:39:47;;;;;;;;;;;22.10;99.90;;;;;;5061908;28;19924;-63
2022/04/09 12:42:15;;;;;;;;;;;22.10;99.90;;;;;;5060065;28;20354;-62
2022/04/09 12:44:45;;;;;;;;;;;22.00;99.90;;;;;;5063985;28;19924;-63
2022/04/09 12:47:20;;;;;;;;;;;22.00;99.90;;;;;;5064671;28;19924;-62
2022/04/09 12:49:47;;;;;;;;;;;22.10;99.90;;;;;;5060393;28;19924;-62
2022/04/09 12:52:15;;;;;;;;;;;22.10;99.90;;;;;;5055827;28;19924;-62
2022/04/09 12:54:42;;;;;;;;;;;22.00;99.90;;;;;;5072857;28;19948;-65
2022/04/09 12:57:14;;;;;;;;;;;22.10;99.90;;;;;;5060594;28;19924;-64
2022/04/09 12:59:42;;;;;;;;;;;22.10;99.90;;;;;;5068547;28;19931;-65
2022/04/09 13:02:10;;;;;;;;;;;22.10;99.90;;;;;;5067661;28;19936;-63
2022/04/09 13:04:37;;;;;;;;;;;22.00;99.90;;;;;;5070572;28;19924;-64
2022/04/09 13:07:05;;;;;;;;;;;22.00;99.90;;;;;;5048635;28;20390;-65
2022/04/09 13:09:32;;;;;;;;;;;22.00;99.90;;;;;;5060337;28;19928;-65
2022/04/09 13:11:59;;;;;;;;;;;21.90;99.90;;;;;;5065055;28;19928;-65
2022/04/09 13:14:26;;;;;;;;;;;21.90;99.90;;;;;;5065317;28;19925;-63
2022/04/09 13:17:00;;;;;;;;;;;21.90;99.90;;;;;;5057341;28;19928;-64
2022/04/09 13:19:29;;;;;;;;;;;21.90;99.90;;;;;;5055715;28;19972;-67
2022/04/09 13:21:56;;;;;;;;;;;21.80;99.90;;;;;;5066089;28;19943;-66
2022/04/09 13:24:23;;;;;;;;;;;21.80;99.90;;;;;;5061783;28;19958;-65
2022/04/09 13:26:50;;;;;;;;;;;21.30;99.90;;;;;;5064273;28;19932;-64
2022/04/09 13:29:18;;;;;;;;;;;21.20;99.90;;;;;;5063660;28;19976;-65
2022/04/09 13:31:46;;;;;;;;;;;21.20;99.90;;;;;;5054455;28;19941;-64
2022/04/09 13:34:17;;;;;;;;;;;21.40;99.90;;;;;;5056262;28;19931;-63
2022/04/09 13:36:44;;;;;;;;;;;21.40;99.90;;;;;;5060917;28;20092;-62
2022/04/09 13:39:11;;;;;;;;;;;21.40;99.90;;;;;;5059676;28;19946;-65
2022/04/09 13:41:57;;;;;;;;;;;21.40;99.90;;;;;;5056178;28;19925;-65
2022/04/09 13:44:24;;;;;;;;;;;21.40;99.90;;;;;;5058098;28;20405;-65
2022/04/09 13:46:51;;;;;;;;;;;21.50;99.90;;;;;;5051892;28;20273;-65
2022/04/09 13:49:18;;;;;;;;;;;21.50;99.90;;;;;;5056435;28;19921;-61
2022/04/09 13:51:45;;;;;;;;;;;21.50;99.90;;;;;;5038331;28;19924;-66
2022/04/09 13:54:13;;;;;;;;;;;21.50;99.90;;;;;;5054243;28;19925;-65
2022/04/09 13:56:40;;;;;;;;;;;21.60;99.90;;;;;;5062236;28;19928;-66
2022/04/09 13:59:07;;;;;;;;;;;21.60;99.90;;;;;;5057422;28;20277;-62
2022/04/09 14:01:35;;;;;;;;;;;21.70;99.90;;;;;;5061408;28;20111;-66
2022/04/09 14:04:02;;;;;;;;;;;21.80;99.90;;;;;;5044611;28;19932;-65
2022/04/09 14:06:29;;;;;;;;;;;21.80;99.90;;;;;;5053876;28;19924;-65
2022/04/09 14:08:56;;;;;;;;;;;21.90;99.90;;;;;;5062091;28;19928;-65
2022/04/09 14:11:23;;;;;;;;;;;22.10;99.90;;;;;;5057467;28;19928;-66
2022/04/09 14:13:51;;;;;;;;;;;22.10;99.90;;;;;;5060212;28;20038;-65
2022/04/09 14:16:18;;;;;;;;;;;22.10;99.90;;;;;;5064825;28;19925;-65
2022/04/09 14:18:46;;;;;;;;;;;21.90;98.40;;;;;;5042557;28;19943;-67
2022/04/09 14:21:13;;;;;;;;;;;21.80;97.00;;;;;;5061566;28;20297;-65
2022/04/09 14:23:41;;;;;;;;;;;21.80;95.10;;;;;;5064791;28;19947;-65
2022/04/09 14:26:09;;;;;;;;;;;21.80;93.90;;;;;;5046583;28;19924;-64
2022/04/09 14:28:36;;;;;;;;;;;21.80;93.30;;;;;;5044737;28;19931;-64